createdAt,value
2019-04-01T00:03:59.719Z,2.53
2019-04-01T00:09:06.607Z,2.63
2019-04-01T00:14:12.157Z,2.60
2019-04-01T00:19:17.371Z,2.40
2019-04-01T00:24:22.524Z,2.27
2019-04-01T00:29:27.728Z,2.37
2019-04-01T00:34:32.885Z,2.47
2019-04-01T00:39:38.375Z,2.50
2019-04-01T00:44:43.823Z,2.10
2019-04-01T00:49:49.033Z,2.30
2019-04-01T00:54:54.474Z,2.50
2019-04-01T00:59:59.904Z,2.10
2019-04-01T01:05:06.013Z,2.23
2019-04-01T01:10:11.674Z,2.17
2019-04-01T01:15:17.833Z,2.03
2019-04-01T01:20:23.851Z,1.90
2019-04-01T01:25:29.005Z,1.87
2019-04-01T01:30:34.153Z,2.03
2019-04-01T01:35:39.309Z,1.70
2019-04-01T01:40:44.951Z,2.03
2019-04-01T01:45:50.117Z,1.87
2019-04-01T01:50:56.122Z,1.80
2019-04-01T01:56:02.643Z,2.30
2019-04-01T02:01:07.775Z,2.23
2019-04-01T02:06:12.997Z,1.83
2019-04-01T02:11:18.151Z,1.80
2019-04-01T02:16:23.669Z,1.80
2019-04-01T02:21:29.617Z,1.97
2019-04-01T02:26:35.737Z,1.97
2019-04-01T02:31:41.209Z,2.50
2019-04-01T02:36:46.392Z,2.40
2019-04-01T02:41:52.509Z,1.80
2019-04-01T02:46:58.489Z,2.03
2019-04-01T02:52:03.932Z,2.00
2019-04-01T02:57:09.077Z,3.27
2019-04-01T03:02:14.233Z,1.73
2019-04-01T03:07:19.377Z,2.30
2019-04-01T03:12:25.303Z,2.27
2019-04-01T03:17:30.468Z,2.03
2019-04-01T03:22:35.667Z,2.33
2019-04-01T03:27:40.823Z,2.50
2019-04-01T03:32:46.237Z,2.33
2019-04-01T03:37:51.764Z,2.33
2019-04-01T03:42:57.263Z,2.50
2019-04-01T03:48:03.479Z,2.10
2019-04-01T03:53:08.639Z,2.63
2019-04-01T03:58:14.737Z,2.30
2019-04-01T04:03:19.889Z,2.80
2019-04-01T04:08:25.045Z,2.73
2019-04-01T04:13:30.212Z,2.43
2019-04-01T04:18:35.391Z,2.70
2019-04-01T04:23:40.575Z,2.40
2019-04-01T04:28:45.846Z,2.90
2019-04-01T04:33:51.651Z,3.00
2019-04-01T04:38:56.814Z,2.70
2019-04-01T04:44:02.005Z,2.70
2019-04-01T04:49:07.535Z,2.80
2019-04-01T04:54:12.701Z,3.03
2019-04-01T04:59:17.803Z,2.97
2019-04-01T05:04:22.980Z,3.20
2019-04-01T05:09:28.375Z,2.87
2019-04-01T05:14:33.908Z,2.73
2019-04-01T05:19:39.482Z,2.90
2019-04-01T05:24:44.747Z,3.47
2019-04-01T05:29:52.172Z,2.67
2019-04-01T05:34:58.804Z,3.10
2019-04-01T05:40:05.246Z,2.87
2019-04-01T05:45:11.144Z,3.33
2019-04-01T05:50:16.383Z,3.10
2019-04-01T05:55:21.619Z,2.87
2019-04-01T06:00:54.767Z,2.97
2019-04-01T06:06:00.335Z,3.10
2019-04-01T06:11:05.837Z,3.07
2019-04-01T06:16:11.235Z,3.00
2019-04-01T06:21:17.495Z,2.83
2019-04-01T06:26:23.675Z,3.00
2019-04-01T06:31:29.172Z,3.20
2019-04-01T06:36:34.699Z,2.93
2019-04-01T06:41:39.866Z,3.00
2019-04-01T06:46:45.220Z,3.07
2019-04-01T06:51:50.378Z,3.10
2019-04-01T06:56:55.545Z,2.90
2019-04-01T07:02:00.815Z,2.87
2019-04-01T07:07:18.325Z,3.13
2019-04-01T07:12:13.025Z,3.10
2019-04-01T07:17:18.320Z,3.10
2019-04-01T07:22:24.063Z,2.93
2019-04-01T07:27:29.241Z,3.37
2019-04-01T07:32:34.658Z,2.97
2019-04-01T07:37:40.264Z,3.10
2019-04-01T07:42:45.534Z,2.70
2019-04-01T07:47:51.729Z,3.07
2019-04-01T07:52:58.572Z,2.77
2019-04-01T07:58:03.736Z,2.80
2019-04-01T08:03:08.898Z,3.10
2019-04-01T08:08:14.057Z,2.60
2019-04-01T08:13:19.275Z,2.47
2019-04-01T08:18:24.457Z,2.47
2019-04-01T08:23:31.006Z,2.70
2019-04-01T08:28:38.161Z,2.53
2019-04-01T08:33:43.335Z,2.43
2019-04-01T08:38:48.660Z,2.70
2019-04-01T08:43:53.964Z,2.87
2019-04-01T08:49:00.865Z,3.00
2019-04-01T08:54:06.343Z,2.60
2019-04-01T08:59:17.283Z,2.70
2019-04-01T09:04:23.404Z,2.60
2019-04-01T09:09:30.557Z,2.60
2019-04-01T09:14:36.256Z,2.70
2019-04-01T09:19:41.840Z,2.80
2019-04-01T09:24:47.030Z,2.80
2019-04-01T09:29:52.079Z,2.62
2019-04-01T09:34:57.377Z,2.87
2019-04-01T09:40:02.901Z,2.80
2019-04-01T09:45:08.579Z,3.30
2019-04-01T09:50:13.963Z,3.30
2019-04-01T09:55:19.294Z,3.15
2019-04-01T10:00:24.704Z,3.00
2019-04-01T10:05:30.500Z,2.90
2019-04-01T10:10:36.884Z,3.03
2019-04-01T10:15:43.610Z,3.20
2019-04-01T10:20:49.416Z,3.10
2019-04-01T10:25:54.590Z,3.30
2019-04-01T10:30:59.832Z,3.10
2019-04-01T10:36:05.166Z,3.45
2019-04-01T10:41:10.803Z,3.37
2019-04-01T10:46:16.053Z,3.70
2019-04-01T10:51:21.317Z,3.75
2019-04-01T10:56:26.889Z,3.72
2019-04-01T11:01:33.275Z,3.92
2019-04-01T11:06:39.639Z,3.50
2019-04-01T11:11:45.281Z,3.87
2019-04-01T11:16:50.575Z,3.80
2019-04-01T11:21:56.164Z,4.00
2019-04-01T11:27:01.401Z,3.65
2019-04-01T11:32:07.727Z,4.10
2019-04-01T11:37:13.173Z,4.00
2019-04-01T11:42:18.581Z,4.50
2019-04-01T11:47:23.952Z,4.30
2019-04-01T11:52:29.318Z,4.20
2019-04-01T11:57:34.550Z,4.25
2019-04-01T12:02:39.801Z,5.20
2019-04-01T12:07:45.053Z,5.03
2019-04-01T12:12:51.404Z,4.85
2019-04-01T12:17:58.286Z,5.20
2019-04-01T12:23:03.919Z,4.50
2019-04-01T12:28:09.223Z,5.30
2019-04-01T12:33:14.424Z,5.17
2019-04-01T12:38:19.794Z,5.37
2019-04-01T12:43:25.697Z,5.40
2019-04-01T12:48:31.034Z,6.00
2019-04-01T12:53:36.654Z,5.05
2019-04-01T12:58:41.919Z,5.60
2019-04-01T13:03:48.790Z,5.45
2019-04-01T13:08:54.092Z,5.60
2019-04-01T13:13:59.580Z,6.00
2019-04-01T13:19:04.842Z,5.87
2019-04-01T13:24:10.507Z,5.80
2019-04-01T13:29:16.208Z,5.47
2019-04-01T13:34:21.804Z,5.72
2019-04-01T13:39:27.132Z,5.67
2019-04-01T13:44:37.365Z,5.45
2019-04-01T13:49:40.073Z,5.78
2019-04-01T13:54:45.306Z,5.10
2019-04-01T13:59:51.764Z,4.97
2019-04-01T14:04:57.380Z,5.05
2019-04-01T14:10:02.726Z,5.10
2019-04-01T14:15:08.803Z,5.00
2019-04-01T14:20:14.099Z,5.08
2019-04-01T14:25:19.341Z,4.90
2019-04-01T14:30:25.607Z,4.95
2019-04-01T14:35:31.255Z,5.00
2019-04-01T14:40:37.091Z,4.37
2019-04-01T14:45:42.394Z,3.52
2019-04-01T14:50:47.642Z,4.03
2019-04-01T14:55:53.826Z,3.50
2019-04-01T15:00:59.210Z,3.77
2019-04-01T15:06:04.804Z,4.10
2019-04-01T15:11:09.985Z,4.12
2019-04-01T15:16:15.237Z,4.10
2019-04-01T15:21:21.778Z,3.75
2019-04-01T15:26:27.362Z,3.60
2019-04-01T15:31:33.703Z,3.45
2019-04-01T15:36:38.970Z,3.65
2019-04-01T15:41:45.334Z,3.95
2019-04-01T15:46:51.442Z,3.58
2019-04-01T15:51:57.840Z,3.40
2019-04-01T15:57:03.089Z,3.05
2019-04-01T16:02:08.343Z,3.30
2019-04-01T16:07:13.876Z,3.83
2019-04-01T16:12:19.505Z,4.12
2019-04-01T16:17:25.872Z,3.65
2019-04-01T16:22:31.171Z,3.35
2019-04-01T16:27:37.494Z,3.60
2019-04-01T16:32:42.768Z,3.67
2019-04-01T16:37:48.014Z,3.60
2019-04-01T16:42:55.665Z,3.55
2019-04-01T16:48:00.349Z,3.77
2019-04-01T16:53:05.723Z,3.90
2019-04-01T16:58:10.977Z,3.80
2019-04-01T17:03:16.320Z,3.80
2019-04-01T17:08:21.932Z,4.03
2019-04-01T17:13:27.490Z,3.80
2019-04-01T17:18:33.123Z,3.50
2019-04-01T17:23:41.697Z,3.55
2019-04-01T17:28:45.623Z,3.72
2019-04-01T17:33:51.178Z,3.77
2019-04-01T17:38:56.420Z,3.90
2019-04-01T17:44:01.729Z,3.65
2019-04-01T17:49:07.092Z,3.77
2019-04-01T17:54:12.346Z,3.52
2019-04-01T17:59:17.716Z,3.52
2019-04-01T18:04:23.060Z,3.47
2019-04-01T18:09:30.998Z,3.62
2019-04-01T18:14:36.408Z,3.60
2019-04-01T18:19:42.473Z,3.70
2019-04-01T18:24:48.258Z,3.75
2019-04-01T18:29:53.804Z,3.40
2019-04-01T18:34:59.041Z,3.92
2019-04-01T18:40:04.869Z,3.72
2019-04-01T18:45:10.840Z,3.50
2019-04-01T18:50:16.822Z,4.20
2019-04-01T18:55:22.438Z,4.17
2019-04-01T19:00:27.886Z,4.33
2019-04-01T19:05:33.266Z,4.53
2019-04-01T19:10:39.476Z,4.60
2019-04-01T19:15:45.348Z,4.12
2019-04-01T19:20:56.933Z,3.98
2019-04-01T19:25:58.227Z,4.33
2019-04-01T19:31:03.889Z,4.42
2019-04-01T19:36:10.202Z,4.43
2019-04-01T19:41:15.755Z,4.22
2019-04-01T19:46:21.002Z,4.42
2019-04-01T19:51:26.179Z,4.47
2019-04-01T19:56:31.731Z,4.20
2019-04-01T20:01:37.384Z,4.10
2019-04-01T20:06:42.636Z,4.10
2019-04-01T20:11:47.990Z,4.63
2019-04-01T20:16:53.499Z,4.30
2019-04-01T20:21:58.697Z,4.63
2019-04-01T20:27:04.191Z,4.60
2019-04-01T20:32:17.304Z,4.70
2019-04-01T20:37:16.747Z,4.37
2019-04-01T20:42:23.120Z,4.60
2019-04-01T20:47:29.037Z,4.37
2019-04-01T20:52:34.751Z,4.33
2019-04-01T20:57:39.988Z,4.42
2019-04-01T21:02:45.475Z,4.37
2019-04-01T21:07:50.767Z,4.40
2019-04-01T21:12:55.957Z,4.50
2019-04-01T21:18:01.238Z,4.37
2019-04-01T21:23:07.619Z,4.13
2019-04-01T21:28:12.912Z,4.10
2019-04-01T21:33:18.232Z,4.90
2019-04-01T21:38:23.402Z,4.10
2019-04-01T21:43:29.555Z,4.30
2019-04-01T21:48:35.359Z,4.20
2019-04-01T21:53:40.531Z,4.37
2019-04-01T21:58:47.141Z,4.30
2019-04-01T22:03:52.393Z,4.40
2019-04-01T22:08:58.458Z,4.27
2019-04-01T22:14:03.992Z,4.33
2019-04-01T22:19:09.899Z,4.30
2019-04-01T22:24:15.456Z,4.40
2019-04-01T22:29:20.757Z,4.67
2019-04-01T22:34:26.060Z,4.57
2019-04-01T22:39:32.893Z,5.30
2019-04-01T22:44:38.617Z,5.20
2019-04-01T22:49:44.071Z,5.67
2019-04-01T22:54:50.753Z,5.17
2019-04-01T22:59:56.488Z,5.10
2019-04-01T23:05:03.409Z,5.27
2019-04-01T23:10:10.408Z,4.90
2019-04-01T23:15:15.810Z,5.17
2019-04-01T23:20:22.729Z,5.03
2019-04-01T23:25:28.153Z,4.57
2019-04-01T23:30:33.517Z,5.23
2019-04-01T23:35:39.555Z,4.77
2019-04-01T23:40:45.054Z,5.33
2019-04-01T23:45:50.498Z,5.23
2019-04-01T23:50:56.929Z,5.10
2019-04-01T23:56:02.474Z,5.30
